Time;durP1;ratioP1;P1;durP2;ratioP2;P2;SDS_P1;SDS_P2;PMS_P1;PMS_P2;Temp;Humidity;BMP_temperature;BMP_pressure;BME280_temperature;BME280_humidity;BME280_pressure;Samples;Min_cycle;Max_cycle;Signal;HPM_P1;HPM_P2
2023/05/03 00:02:06;;;;;;;10.13;8.20;;;;;;;;;;5076720;28;20048;-68
2023/05/03 00:04:35;;;;;;;11.45;8.43;;;;;;;;;;5089746;28;20117;-68
2023/05/03 00:07:02;;;;;;;10.05;7.63;;;;;;;;;;5089724;28;20090;-68
2023/05/03 00:09:28;;;;;;;9.75;7.68;;;;;;;;;;5089687;28;20051;-68
2023/05/03 00:11:55;;;;;;;10.32;7.95;;;;;;;;;;5089639;28;20052;-69
2023/05/03 00:14:22;;;;;;;12.95;8.15;;;;;;;;;;5089701;28;20510;-69
2023/05/03 00:16:49;;;;;;;10.15;7.30;;;;;;;;;;5089651;28;20097;-69
2023/05/03 00:19:16;;;;;;;10.02;7.10;;;;;;;;;;5089452;28;20048;-69
2023/05/03 00:21:44;;;;;;;12.40;8.20;;;;;;;;;;5089745;28;20075;-69
2023/05/03 00:24:11;;;;;;;8.90;7.28;;;;;;;;;;5090054;28;20139;-69
2023/05/03 00:26:38;;;;;;;11.52;7.90;;;;;;;;;;5089780;28;20138;-68
2023/05/03 00:29:05;;;;;;;11.32;7.55;;;;;;;;;;5089552;28;20047;-68
2023/05/03 00:31:32;;;;;;;13.25;8.73;;;;;;;;;;5089859;28;20041;-69
2023/05/03 00:33:59;;;;;;;11.23;7.55;;;;;;;;;;5089648;28;20055;-69
2023/05/03 00:36:27;;;;;;;11.20;8.35;;;;;;;;;;5089844;28;20271;-69
2023/05/03 00:38:55;;;;;;;10.52;7.93;;;;;;;;;;5090183;28;20063;-69
2023/05/03 00:41:23;;;;;;;10.77;8.43;;;;;;;;;;5090013;28;20051;-69
2023/05/03 00:43:50;;;;;;;11.10;8.68;;;;;;;;;;5089980;28;20048;-69
2023/05/03 00:46:17;;;;;;;12.13;9.07;;;;;;;;;;5090239;28;20044;-69
2023/05/03 00:48:44;;;;;;;11.80;8.02;;;;;;;;;;5090436;28;20048;-69
2023/05/03 00:51:14;;;;;;;12.82;8.68;;;;;;;;;;5090069;28;20073;-69
2023/05/03 00:53:41;;;;;;;11.10;7.53;;;;;;;;;;5090416;28;20072;-68
2023/05/03 00:56:10;;;;;;;10.32;7.82;;;;;;;;;;5089728;28;20541;-68
2023/05/03 00:58:39;;;;;;;9.95;7.60;;;;;;;;;;5089430;28;20044;-69
2023/05/03 01:01:06;;;;;;;10.45;7.45;;;;;;;;;;5090069;28;20135;-68
2023/05/03 01:03:35;;;;;;;9.73;7.40;;;;;;;;;;5070430;28;20087;-68
2023/05/03 01:09:31;;;;;;;9.38;6.88;;;;;;;;;;5069612;28;20150;-68
2023/05/03 01:12:12;;;;;;;10.13;6.97;;;;;;;;;;5072812;28;20133;-68
2023/05/03 01:14:49;;;;;;;13.57;7.60;;;;;;;;;;5072918;28;20041;-68
2023/05/03 01:17:18;;;;;;;10.20;7.60;;;;;;;;;;5072765;28;20094;-68
2023/05/03 01:19:48;;;;;;;10.63;7.50;;;;;;;;;;5071936;28;20371;-68
2023/05/03 01:22:21;;;;;;;9.40;7.30;;;;;;;;;;5072694;28;20072;-68
2023/05/03 01:24:59;;;;;;;8.65;7.20;;;;;;;;;;5072689;28;20053;-68
2023/05/03 01:27:26;;;;;;;10.77;7.72;;;;;;;;;;5072607;28;20493;-68
2023/05/03 01:29:53;;;;;;;9.73;7.22;;;;;;;;;;5072067;28;20044;-68
2023/05/03 01:32:29;;;;;;;10.82;7.78;;;;;;;;;;5072728;28;20382;-68
2023/05/03 01:35:03;;;;;;;9.65;7.78;;;;;;;;;;5072218;28;20528;-68
2023/05/03 01:37:32;;;;;;;11.60;7.82;;;;;;;;;;5072103;28;20056;-67
2023/05/03 01:40:03;;;;;;;14.07;8.82;;;;;;;;;;5071844;28;20059;-68
2023/05/03 01:42:31;;;;;;;11.95;9.15;;;;;;;;;;5072007;28;20127;-68
2023/05/03 01:44:59;;;;;;;11.50;8.82;;;;;;;;;;5071601;28;20056;-68
2023/05/03 01:47:26;;;;;;;12.57;8.82;;;;;;;;;;5071698;28;20434;-68
2023/05/03 01:49:53;;;;;;;12.75;8.95;;;;;;;;;;5071802;28;20044;-68
2023/05/03 01:52:20;;;;;;;12.18;8.82;;;;;;;;;;5071835;28;20134;-68
2023/05/03 01:54:47;;;;;;;11.30;8.27;;;;;;;;;;5071658;28;20094;-68
2023/05/03 01:57:15;;;;;;;11.52;8.52;;;;;;;;;;5071502;28;20113;-69
2023/05/03 01:59:42;;;;;;;9.90;8.00;;;;;;;;;;5071068;28;20044;-68
2023/05/03 02:02:08;;;;;;;10.25;7.47;;;;;;;;;;5079109;28;20059;-68
2023/05/03 02:04:35;;;;;;;10.95;7.93;;;;;;;;;;5091996;28;20466;-68
2023/05/03 02:07:02;;;;;;;10.93;7.70;;;;;;;;;;5092027;28;20059;-68
2023/05/03 02:09:29;;;;;;;11.18;8.05;;;;;;;;;;5091742;28;20101;-68
2023/05/03 02:11:56;;;;;;;10.98;8.25;;;;;;;;;;5091522;28;20079;-68
2023/05/03 02:14:24;;;;;;;11.43;8.27;;;;;;;;;;5091619;28;20441;-68
2023/05/03 02:16:54;;;;;;;10.88;7.65;;;;;;;;;;5091337;28;20493;-68
2023/05/03 02:19:21;;;;;;;10.60;8.48;;;;;;;;;;5091458;28;20055;-68
2023/05/03 02:21:48;;;;;;;11.57;8.40;;;;;;;;;;5092032;28;20044;-68
2023/05/03 02:24:15;;;;;;;9.30;7.53;;;;;;;;;;5091211;28;20124;-68
2023/05/03 02:26:42;;;;;;;11.15;9.27;;;;;;;;;;5091351;28;20144;-68
2023/05/03 02:29:09;;;;;;;12.88;8.43;;;;;;;;;;5091151;28;20052;-68
2023/05/03 02:31:37;;;;;;;11.90;8.80;;;;;;;;;;5091396;28;20044;-68
2023/05/03 02:34:04;;;;;;;10.68;7.90;;;;;;;;;;5091581;28;20131;-68
2023/05/03 02:36:31;;;;;;;11.23;8.15;;;;;;;;;;5091372;28;20048;-68
2023/05/03 02:38:57;;;;;;;10.77;7.70;;;;;;;;;;5090866;28;20083;-68
2023/05/03 02:41:24;;;;;;;10.23;7.63;;;;;;;;;;5091082;28;20094;-68
2023/05/03 02:43:51;;;;;;;10.30;8.38;;;;;;;;;;5091046;28;20044;-69
2023/05/03 02:46:18;;;;;;;9.48;7.43;;;;;;;;;;5091464;28;20594;-68
2023/05/03 02:48:46;;;;;;;9.20;6.97;;;;;;;;;;5090830;28;20489;-68
2023/05/03 02:51:13;;;;;;;9.70;7.53;;;;;;;;;;5090740;28;20052;-67
2023/05/03 02:53:40;;;;;;;9.57;6.60;;;;;;;;;;5072229;28;20394;-68
2023/05/03 02:56:08;;;;;;;10.20;7.10;;;;;;;;;;5070814;28;20045;-68
2023/05/03 02:58:35;;;;;;;8.90;6.53;;;;;;;;;;5070813;28;20135;-68
2023/05/03 03:01:02;;;;;;;9.45;7.25;;;;;;;;;;5070440;28;20041;-68
2023/05/03 03:03:29;;;;;;;10.73;7.18;;;;;;;;;;5089017;28;20051;-68
2023/05/03 03:05:57;;;;;;;10.13;7.20;;;;;;;;;;5091036;28;20053;-67
2023/05/03 03:08:24;;;;;;;9.32;6.80;;;;;;;;;;5090654;28;20040;-68
2023/05/03 03:10:51;;;;;;;10.13;7.30;;;;;;;;;;5090657;28;20444;-68
2023/05/03 03:13:17;;;;;;;8.93;7.07;;;;;;;;;;5090623;28;20170;-68
2023/05/03 03:15:44;;;;;;;10.60;7.55;;;;;;;;;;5090522;28;20048;-68
2023/05/03 03:18:11;;;;;;;11.43;7.70;;;;;;;;;;5090161;28;20048;-68
2023/05/03 03:20:38;;;;;;;11.13;7.93;;;;;;;;;;5090299;28;20472;-68
2023/05/03 03:23:06;;;;;;;11.25;7.97;;;;;;;;;;5090685;28;20048;-68
2023/05/03 03:25:33;;;;;;;10.82;7.75;;;;;;;;;;5090426;28;20138;-69
2023/05/03 03:28:00;;;;;;;10.85;7.50;;;;;;;;;;5089878;28;20112;-68
2023/05/03 03:30:27;;;;;;;11.45;7.85;;;;;;;;;;5081103;28;20472;-68
2023/05/03 03:32:54;;;;;;;11.93;8.10;;;;;;;;;;5069963;28;20052;-69
2023/05/03 03:35:21;;;;;;;10.85;7.50;;;;;;;;;;5070193;28;20110;-68
2023/05/03 03:37:48;;;;;;;13.18;8.38;;;;;;;;;;5070213;28;20063;-68
2023/05/03 03:40:16;;;;;;;11.63;8.48;;;;;;;;;;5070048;28;20370;-68
2023/05/03 03:42:43;;;;;;;11.38;8.23;;;;;;;;;;5070346;28;20110;-68
2023/05/03 03:45:11;;;;;;;11.77;8.00;;;;;;;;;;5069077;28;20048;-68
2023/05/03 03:47:38;;;;;;;12.57;8.57;;;;;;;;;;5069699;28;20045;-67
2023/05/03 03:50:05;;;;;;;12.82;8.73;;;;;;;;;;5069344;28;20040;-68
2023/05/03 03:52:32;;;;;;;15.45;9.23;;;;;;;;;;5069963;28;20491;-68
2023/05/03 03:54:59;;;;;;;11.75;7.88;;;;;;;;;;5069933;28;20052;-68
2023/05/03 03:57:29;;;;;;;12.98;7.80;;;;;;;;;;5070016;28;20117;-68
2023/05/03 03:59:56;;;;;;;13.07;8.88;;;;;;;;;;5069840;28;20100;-68
2023/05/03 04:02:23;;;;;;;14.77;8.52;;;;;;;;;;5078952;28;20047;-68
2023/05/03 04:04:50;;;;;;;13.75;8.48;;;;;;;;;;5090115;28;20059;-69
2023/05/03 04:07:17;;;;;;;14.32;8.32;;;;;;;;;;5089952;28;20044;-68
2023/05/03 04:09:44;;;;;;;15.32;8.75;;;;;;;;;;5089317;28;20044;-68
2023/05/03 04:12:11;;;;;;;27.10;8.88;;;;;;;;;;5090239;28;20059;-69
2023/05/03 04:14:39;;;;;;;13.50;8.95;;;;;;;;;;5089394;28;20052;-69
2023/05/03 04:17:06;;;;;;;17.05;9.10;;;;;;;;;;5090176;28;20560;-68
2023/05/03 04:19:32;;;;;;;15.38;9.52;;;;;;;;;;5089269;28;20044;-68
2023/05/03 04:21:59;;;;;;;14.95;9.07;;;;;;;;;;5089416;28;20059;-68
2023/05/03 04:24:29;;;;;;;20.00;9.55;;;;;;;;;;5089904;28;20168;-68
2023/05/03 04:26:57;;;;;;;13.90;8.50;;;;;;;;;;5089796;28;20052;-68
2023/05/03 04:29:24;;;;;;;15.32;8.20;;;;;;;;;;5089188;28;20055;-68
2023/05/03 04:31:53;;;;;;;12.38;7.60;;;;;;;;;;5089363;28;20056;-68
2023/05/03 04:34:19;;;;;;;13.52;8.20;;;;;;;;;;5074491;28;20394;-68
2023/05/03 04:36:47;;;;;;;12.50;7.20;;;;;;;;;;5069235;28;20048;-68
2023/05/03 04:39:14;;;;;;;18.98;7.63;;;;;;;;;;5069838;28;20470;-68
2023/05/03 04:41:41;;;;;;;13.70;8.13;;;;;;;;;;5072461;28;20048;-69
2023/05/03 04:44:08;;;;;;;13.45;7.28;;;;;;;;;;5075515;28;20496;-70
2023/05/03 04:46:35;;;;;;;22.08;7.50;;;;;;;;;;5073690;28;20105;-68
2023/05/03 04:49:03;;;;;;;12.82;7.88;;;;;;;;;;5106426;22;20112;-68
2023/05/03 04:51:31;;;;;;;15.70;7.80;;;;;;;;;;5094013;28;20091;-69
2023/05/03 04:53:58;;;;;;;13.85;8.05;;;;;;;;;;5093081;28;20101;-69
2023/05/03 04:56:25;;;;;;;30.73;9.02;;;;;;;;;;5096016;28;20048;-70
2023/05/03 04:58:52;;;;;;;17.45;8.98;;;;;;;;;;5093752;28;20151;-70
2023/05/03 05:01:25;;;;;;;13.20;7.78;;;;;;;;;;5093302;28;20051;-70
2023/05/03 05:03:52;;;;;;;15.13;8.73;;;;;;;;;;5093672;28;20143;-70
2023/05/03 05:06:20;;;;;;;14.05;8.27;;;;;;;;;;5093892;28;20048;-71
2023/05/03 05:08:47;;;;;;;14.80;8.13;;;;;;;;;;5094086;28;20051;-70
2023/05/03 05:11:14;;;;;;;15.52;8.82;;;;;;;;;;5093854;28;20486;-70
2023/05/03 05:13:41;;;;;;;20.88;9.98;;;;;;;;;;5093238;28;20135;-70
2023/05/03 05:16:08;;;;;;;19.45;9.80;;;;;;;;;;5093395;28;20388;-70
2023/05/03 05:18:35;;;;;;;15.40;9.07;;;;;;;;;;5093135;28;20056;-71
2023/05/03 05:21:02;;;;;;;14.38;8.82;;;;;;;;;;5093323;28;20481;-70
2023/05/03 05:23:30;;;;;;;14.20;9.07;;;;;;;;;;5092837;28;20056;-71
2023/05/03 05:25:59;;;;;;;19.90;9.18;;;;;;;;;;5092218;28;20063;-70
2023/05/03 05:28:26;;;;;;;15.43;8.77;;;;;;;;;;5093104;28;20094;-70
2023/05/03 05:30:53;;;;;;;13.63;8.20;;;;;;;;;;5093010;28;20094;-71
2023/05/03 05:33:20;;;;;;;15.30;9.07;;;;;;;;;;5093795;28;20056;-71
2023/05/03 05:35:47;;;;;;;14.82;8.70;;;;;;;;;;5092941;28;20137;-70
2023/05/03 05:38:14;;;;;;;13.07;8.35;;;;;;;;;;5092984;28;20446;-71
2023/05/03 05:40:43;;;;;;;14.32;8.63;;;;;;;;;;5091870;28;20052;-70
2023/05/03 05:43:10;;;;;;;15.52;9.93;;;;;;;;;;5092408;28;20102;-70
2023/05/03 05:45:36;;;;;;;16.98;10.02;;;;;;;;;;5092446;28;20500;-71
2023/05/03 05:48:04;;;;;;;18.88;11.32;;;;;;;;;;5092590;28;20154;-70
2023/05/03 05:50:31;;;;;;;17.80;10.80;;;;;;;;;;5092744;28;20557;-70
2023/05/03 05:52:58;;;;;;;17.75;10.43;;;;;;;;;;5092578;28;20054;-70
2023/05/03 05:55:25;;;;;;;21.40;11.32;;;;;;;;;;5093607;28;20048;-71
2023/05/03 05:57:53;;;;;;;16.73;10.25;;;;;;;;;;5092855;28;20059;-69
2023/05/03 06:00:20;;;;;;;19.52;10.43;;;;;;;;;;5092658;28;20117;-70
2023/05/03 06:02:47;;;;;;;20.92;10.50;;;;;;;;;;5092684;28;20080;-70
2023/05/03 06:05:14;;;;;;;16.30;9.30;;;;;;;;;;5092650;28;20051;-71
2023/05/03 06:07:41;;;;;;;18.17;9.90;;;;;;;;;;5092600;28;20357;-71
2023/05/03 06:10:08;;;;;;;17.35;9.82;;;;;;;;;;5092097;28;20048;-71
2023/05/03 06:12:35;;;;;;;18.05;10.10;;;;;;;;;;5092254;28;20052;-71
2023/05/03 06:15:04;;;;;;;17.42;9.35;;;;;;;;;;5092060;28;20051;-69
2023/05/03 06:17:31;;;;;;;18.80;9.50;;;;;;;;;;5093308;28;20044;-71
2023/05/03 06:19:58;;;;;;;15.60;8.65;;;;;;;;;;5092306;28;20048;-70
2023/05/03 06:22:25;;;;;;;17.45;9.73;;;;;;;;;;5092194;28;20473;-71
2023/05/03 06:24:52;;;;;;;16.65;9.45;;;;;;;;;;5091608;28;20052;-71
2023/05/03 06:27:19;;;;;;;16.80;9.65;;;;;;;;;;5091714;28;20054;-70
2023/05/03 06:29:48;;;;;;;18.60;10.45;;;;;;;;;;5092302;28;20063;-71
2023/05/03 06:32:16;;;;;;;18.70;10.43;;;;;;;;;;5091559;28;20060;-70
2023/05/03 06:34:43;;;;;;;18.58;10.40;;;;;;;;;;5091522;28;20405;-71
2023/05/03 06:37:10;;;;;;;17.70;10.13;;;;;;;;;;5091611;28;20101;-71
2023/05/03 06:39:37;;;;;;;18.23;9.55;;;;;;;;;;5091859;28;20077;-70
2023/05/03 06:42:04;;;;;;;18.00;9.68;;;;;;;;;;5091205;28;20067;-70
2023/05/03 06:44:31;;;;;;;17.15;10.43;;;;;;;;;;5091537;28;20067;-69
2023/05/03 06:46:58;;;;;;;18.65;9.63;;;;;;;;;;5091730;28;20105;-70
2023/05/03 06:49:26;;;;;;;18.38;10.15;;;;;;;;;;5091436;28;20109;-70
2023/05/03 06:51:52;;;;;;;18.08;10.57;;;;;;;;;;5091702;28;20044;-69
2023/05/03 06:54:19;;;;;;;18.73;9.95;;;;;;;;;;5091680;28;20277;-70
2023/05/03 06:56:46;;;;;;;19.40;10.43;;;;;;;;;;5091720;28;20090;-70
2023/05/03 06:59:16;;;;;;;18.50;11.25;;;;;;;;;;5091004;28;20081;-71
2023/05/03 07:01:43;;;;;;;19.40;10.90;;;;;;;;;;5091505;28;20051;-70
2023/05/03 07:04:10;;;;;;;19.65;11.02;;;;;;;;;;5090012;28;20040;-69
2023/05/03 07:06:38;;;;;;;22.63;11.55;;;;;;;;;;5090662;28;20109;-70
2023/05/03 07:09:05;;;;;;;21.08;11.48;;;;;;;;;;5091042;28;20044;-71
2023/05/03 07:11:33;;;;;;;19.83;11.27;;;;;;;;;;5090736;28;20134;-71
2023/05/03 07:14:02;;;;;;;25.00;12.98;;;;;;;;;;5090462;28;20055;-71
2023/05/03 07:16:29;;;;;;;23.80;12.95;;;;;;;;;;5090824;28;20056;-71
2023/05/03 07:18:56;;;;;;;19.77;11.07;;;;;;;;;;5091435;28;20048;-71
2023/05/03 07:21:25;;;;;;;21.63;12.77;;;;;;;;;;5091525;28;20137;-67
2023/05/03 07:23:53;;;;;;;21.55;13.15;;;;;;;;;;5091147;28;20455;-68
2023/05/03 07:26:20;;;;;;;22.80;13.57;;;;;;;;;;5090450;28;20059;-69
2023/05/03 07:28:47;;;;;;;24.95;14.18;;;;;;;;;;5090242;28;20113;-69
2023/05/03 07:31:14;;;;;;;21.90;13.48;;;;;;;;;;5090243;28;20094;-69
2023/05/03 07:33:41;;;;;;;24.67;14.13;;;;;;;;;;5090726;28;20382;-69
2023/05/03 07:36:08;;;;;;;24.00;12.73;;;;;;;;;;5090180;28;20052;-69
2023/05/03 07:38:35;;;;;;;19.83;13.32;;;;;;;;;;5090143;28;20181;-69
2023/05/03 07:41:03;;;;;;;26.33;14.98;;;;;;;;;;5089860;28;20470;-69
2023/05/03 07:43:30;;;;;;;23.23;13.65;;;;;;;;;;5090024;28;20189;-69
2023/05/03 07:45:57;;;;;;;21.52;13.60;;;;;;;;;;5089972;28;20101;-69
2023/05/03 07:48:24;;;;;;;21.65;12.80;;;;;;;;;;5090003;28;20054;-69
2023/05/03 07:50:51;;;;;;;25.38;14.60;;;;;;;;;;5090048;28;20055;-69
2023/05/03 07:53:17;;;;;;;23.48;13.30;;;;;;;;;;5089931;28;20409;-69
2023/05/03 07:55:44;;;;;;;23.52;12.85;;;;;;;;;;5089571;28;20052;-69
2023/05/03 07:58:13;;;;;;;24.27;14.25;;;;;;;;;;5090054;28;20485;-70
2023/05/03 08:00:39;;;;;;;23.80;14.60;;;;;;;;;;5089615;28;20047;-69
2023/05/03 08:03:06;;;;;;;24.02;13.90;;;;;;;;;;5089159;28;20121;-67
2023/05/03 08:05:35;;;;;;;25.45;14.70;;;;;;;;;;5089710;28;20044;-69
2023/05/03 08:08:04;;;;;;;24.00;13.30;;;;;;;;;;5089445;28;20048;-69
2023/05/03 08:10:36;;;;;;;22.13;13.27;;;;;;;;;;5089921;28;20401;-68
2023/05/03 08:13:03;;;;;;;22.10;12.98;;;;;;;;;;5090305;28;20546;-69
2023/05/03 08:15:31;;;;;;;24.60;14.38;;;;;;;;;;5090011;28;20439;-69
2023/05/03 08:17:58;;;;;;;25.83;16.02;;;;;;;;;;5089740;28;20492;-69
2023/05/03 08:20:26;;;;;;;24.23;14.02;;;;;;;;;;5089128;28;20524;-68
2023/05/03 08:22:55;;;;;;;25.33;15.05;;;;;;;;;;5089238;28;20105;-70
2023/05/03 08:25:22;;;;;;;24.30;15.32;;;;;;;;;;5089722;28;20066;-69
2023/05/03 08:27:49;;;;;;;23.83;14.43;;;;;;;;;;5089534;28;20474;-69
2023/05/03 08:30:16;;;;;;;26.15;14.27;;;;;;;;;;5089340;28;20056;-68
2023/05/03 08:32:44;;;;;;;24.95;14.30;;;;;;;;;;5089842;28;20522;-69
2023/05/03 08:35:12;;;;;;;24.65;14.45;;;;;;;;;;5089757;28;20503;-69
2023/05/03 08:37:39;;;;;;;24.95;15.20;;;;;;;;;;5089707;28;20056;-70
2023/05/03 08:40:09;;;;;;;25.23;14.98;;;;;;;;;;5089596;28;20087;-69
2023/05/03 08:42:39;;;;;;;27.40;15.85;;;;;;;;;;5089509;28;20120;-70
2023/05/03 08:45:09;;;;;;;25.45;15.02;;;;;;;;;;5089365;28;20105;-69
2023/05/03 08:47:37;;;;;;;25.83;15.23;;;;;;;;;;5089130;28;20044;-69
2023/05/03 08:50:06;;;;;;;26.77;16.83;;;;;;;;;;5089269;28;20071;-70
2023/05/03 08:52:34;;;;;;;30.92;18.05;;;;;;;;;;5089200;28;20485;-69
2023/05/03 08:55:01;;;;;;;24.70;15.20;;;;;;;;;;5089516;28;20098;-69
2023/05/03 08:57:29;;;;;;;28.23;15.63;;;;;;;;;;5089211;28;20111;-69
2023/05/03 08:59:59;;;;;;;28.23;15.73;;;;;;;;;;5089163;28;20086;-69
2023/05/03 09:02:26;;;;;;;28.45;16.65;;;;;;;;;;5089144;28;20044;-69
2023/05/03 09:04:53;;;;;;;29.35;15.85;;;;;;;;;;5089595;28;20097;-69
2023/05/03 09:07:22;;;;;;;27.55;15.82;;;;;;;;;;5089984;28;20097;-69
2023/05/03 09:09:50;;;;;;;26.63;16.38;;;;;;;;;;5089635;28;20420;-73
2023/05/03 09:12:34;;;;;;;28.98;17.50;;;;;;;;;;5089442;28;20052;-65
2023/05/03 09:15:02;;;;;;;26.95;16.90;;;;;;;;;;5089292;28;20459;-73
2023/05/03 09:17:29;;;;;;;29.20;17.95;;;;;;;;;;5090304;28;20436;-66
2023/05/03 09:19:58;;;;;;;26.88;17.17;;;;;;;;;;5090471;28;20109;-69
2023/05/03 09:22:28;;;;;;;25.13;14.85;;;;;;;;;;5090886;28;20496;-69
2023/05/03 09:24:56;;;;;;;26.73;17.88;;;;;;;;;;5090309;28;20032;-69
2023/05/03 09:27:24;;;;;;;27.20;17.27;;;;;;;;;;5091479;28;20063;-69
2023/05/03 09:29:51;;;;;;;31.48;17.83;;;;;;;;;;5094219;28;20420;-69
2023/05/03 09:32:20;;;;;;;29.48;19.67;;;;;;;;;;5094223;28;20067;-69
2023/05/03 09:34:47;;;;;;;33.17;19.00;;;;;;;;;;5094501;28;20044;-69
2023/05/03 09:37:14;;;;;;;30.10;19.90;;;;;;;;;;5093912;28;20135;-69
2023/05/03 09:39:43;;;;;;;30.50;18.00;;;;;;;;;;5093605;28;20058;-69
2023/05/03 09:42:17;;;;;;;28.98;18.77;;;;;;;;;;5093960;28;20358;-68
2023/05/03 09:44:47;;;;;;;25.27;15.65;;;;;;;;;;5093803;28;20139;-69
2023/05/03 09:47:15;;;;;;;25.65;17.13;;;;;;;;;;5094086;28;20481;-68
2023/05/03 09:49:43;;;;;;;29.05;18.63;;;;;;;;;;5093824;28;20070;-69
2023/05/03 09:52:10;;;;;;;26.25;16.83;;;;;;;;;;5093105;28;20504;-68
2023/05/03 09:54:37;;;;;;;25.20;16.05;;;;;;;;;;5093213;28;20089;-69
2023/05/03 09:57:07;;;;;;;25.63;16.85;;;;;;;;;;5093021;28;20156;-69
2023/05/03 09:59:35;;;;;;;25.20;15.40;;;;;;;;;;5092999;28;20146;-67
2023/05/03 10:02:04;;;;;;;26.00;16.25;;;;;;;;;;5093612;28;20451;-69
2023/05/03 10:04:39;;;;;;;28.25;17.67;;;;;;;;;;5092767;28;20052;-69
2023/05/03 10:07:10;;;;;;;24.83;16.38;;;;;;;;;;5093059;28;20076;-68
2023/05/03 10:09:40;;;;;;;30.23;18.10;;;;;;;;;;5092679;28;20466;-68
2023/05/03 10:12:11;;;;;;;25.83;16.75;;;;;;;;;;5093025;28;20066;-70
2023/05/03 10:14:40;;;;;;;28.33;17.90;;;;;;;;;;5092842;28;20523;-70
2023/05/03 10:17:12;;;;;;;27.60;18.65;;;;;;;;;;5093753;28;20190;-67
2023/05/03 10:19:47;;;;;;;27.15;17.13;;;;;;;;;;5092982;28;20048;-69
2023/05/03 10:22:14;;;;;;;28.25;18.35;;;;;;;;;;5093013;28;20050;-69
2023/05/03 10:25:08;;;;;;;23.70;15.55;;;;;;;;;;5092392;28;20048;-69
2023/05/03 10:27:51;;;;;;;29.20;19.10;;;;;;;;;;5092965;28;20391;-70
2023/05/03 10:30:29;;;;;;;25.67;15.93;;;;;;;;;;5092273;28;20090;-70
2023/05/03 10:32:57;;;;;;;26.60;16.65;;;;;;;;;;5074266;28;20052;-69
2023/05/03 10:35:28;;;;;;;22.60;15.48;;;;;;;;;;5092672;28;20044;-67
2023/05/03 10:37:57;;;;;;;23.75;15.90;;;;;;;;;;5092384;28;20513;-70
2023/05/03 10:40:40;;;;;;;24.20;16.77;;;;;;;;;;5092397;28;20044;-70
2023/05/03 10:43:41;;;;;;;24.50;17.02;;;;;;;;;;5092374;28;20397;-69
2023/05/03 10:46:17;;;;;;;28.17;18.77;;;;;;;;;;5092054;28;20059;-69
2023/05/03 10:48:45;;;;;;;28.40;20.77;;;;;;;;;;5103890;22;20060;-68
2023/05/03 10:51:37;;;;;;;27.95;19.30;;;;;;;;;;5069856;28;20126;-68
2023/05/03 10:54:04;;;;;;;25.50;17.48;;;;;;;;;;5050723;28;20049;-69
2023/05/03 10:56:31;;;;;;;33.75;22.08;;;;;;;;;;5070684;28;20048;-69
2023/05/03 10:58:59;;;;;;;33.20;21.98;;;;;;;;;;5070276;28;20044;-68
2023/05/03 11:01:27;;;;;;;27.83;18.90;;;;;;;;;;5070968;28;20052;-69
2023/05/03 11:04:02;;;;;;;25.33;17.75;;;;;;;;;;5070830;28;20045;-72
2023/05/03 11:06:32;;;;;;;31.70;20.02;;;;;;;;;;5070506;28;20052;-69
2023/05/03 11:08:59;;;;;;;26.30;19.38;;;;;;;;;;5070450;28;20504;-69
2023/05/03 11:11:25;;;;;;;28.33;21.77;;;;;;;;;;5070562;28;20135;-69
2023/05/03 11:13:53;;;;;;;27.05;18.92;;;;;;;;;;5070631;28;20118;-68
2023/05/03 11:16:21;;;;;;;28.38;19.20;;;;;;;;;;5070994;28;20128;-69
2023/05/03 11:18:48;;;;;;;28.27;20.38;;;;;;;;;;5070184;28;20131;-69
2023/05/03 11:21:15;;;;;;;22.65;16.42;;;;;;;;;;5070503;28;20127;-69
2023/05/03 11:23:44;;;;;;;26.10;18.38;;;;;;;;;;5069929;28;20048;-69
2023/05/03 11:26:11;;;;;;;25.73;19.13;;;;;;;;;;5070221;28;20044;-69
2023/05/03 11:28:38;;;;;;;25.58;17.80;;;;;;;;;;5070363;28;20084;-68
2023/05/03 11:31:06;;;;;;;27.45;19.67;;;;;;;;;;5069915;28;20048;-74
2023/05/03 11:33:36;;;;;;;23.65;18.02;;;;;;;;;;5070954;28;20778;-70
2023/05/03 11:36:03;;;;;;;24.73;18.05;;;;;;;;;;5069597;28;20056;-70
2023/05/03 11:38:31;;;;;;;22.67;16.73;;;;;;;;;;5067167;28;20570;-70
2023/05/03 11:40:58;;;;;;;21.45;17.50;;;;;;;;;;5070120;28;20076;-70
2023/05/03 11:43:25;;;;;;;23.25;17.27;;;;;;;;;;5070071;28;20060;-70
2023/05/03 11:45:56;;;;;;;22.17;16.60;;;;;;;;;;5070322;28;20052;-69
2023/05/03 11:48:24;;;;;;;;;;;;;;;;;;5070409;28;20049;-70
2023/05/03 11:50:54;;;;;;;23.58;17.30;;;;;;;;;;5069340;28;19954;-70
2023/05/03 11:53:22;;;;;;;21.30;15.33;;;;;;;;;;5069493;28;20063;-70
2023/05/03 11:55:52;;;;;;;24.35;16.70;;;;;;;;;;5069769;28;20273;-69
2023/05/03 11:58:20;;;;;;;17.70;13.68;;;;;;;;;;5069851;28;20159;-70
2023/05/03 12:00:48;;;;;;;18.33;14.63;;;;;;;;;;5070165;28;20133;-70
2023/05/03 12:03:19;;;;;;;18.80;13.82;;;;;;;;;;5069793;28;20341;-69
2023/05/03 12:05:46;;;;;;;17.17;13.68;;;;;;;;;;5069199;28;20121;-69
2023/05/03 12:08:17;;;;;;;18.48;14.80;;;;;;;;;;5069523;28;20489;-69
2023/05/03 12:10:45;;;;;;;16.98;12.07;;;;;;;;;;5069350;28;20053;-69
2023/05/03 12:13:11;;;;;;;17.20;13.20;;;;;;;;;;5069880;28;20452;-69
2023/05/03 12:15:42;;;;;;;16.30;12.70;;;;;;;;;;5069306;28;20125;-68
2023/05/03 12:18:10;;;;;;;16.10;11.88;;;;;;;;;;5069848;28;20052;-69
2023/05/03 12:20:38;;;;;;;16.17;11.60;;;;;;;;;;5069517;28;20060;-70
2023/05/03 12:23:06;;;;;;;13.38;10.60;;;;;;;;;;5068759;28;20048;-68
2023/05/03 12:25:36;;;;;;;14.18;11.15;;;;;;;;;;5069494;28;20048;-69
2023/05/03 12:28:04;;;;;;;16.73;13.07;;;;;;;;;;5069252;28;20044;-69
2023/05/03 12:30:32;;;;;;;15.25;12.07;;;;;;;;;;5069013;28;20052;-68
2023/05/03 12:33:00;;;;;;;17.27;12.38;;;;;;;;;;5069556;28;20386;-69
2023/05/03 12:35:26;;;;;;;18.05;12.88;;;;;;;;;;5069718;28;20078;-69
2023/05/03 12:37:54;;;;;;;21.75;13.38;;;;;;;;;;5069839;28;20098;-70
2023/05/03 12:40:26;;;;;;;19.85;12.88;;;;;;;;;;5067145;28;20070;-69
2023/05/03 12:42:55;;;;;;;18.05;12.48;;;;;;;;;;5070012;28;20405;-69
2023/05/03 12:45:22;;;;;;;16.40;11.85;;;;;;;;;;5069318;28;20048;-70
2023/05/03 12:47:49;;;;;;;15.32;12.18;;;;;;;;;;5069310;28;20452;-70
2023/05/03 12:50:16;;;;;;;17.98;13.48;;;;;;;;;;5069056;28;20048;-70
2023/05/03 12:52:43;;;;;;;21.08;13.35;;;;;;;;;;5069604;28;20563;-69
2023/05/03 12:55:10;;;;;;;15.35;11.60;;;;;;;;;;5068836;28;20040;-70
2023/05/03 12:57:37;;;;;;;16.48;11.85;;;;;;;;;;5068879;28;20041;-69
2023/05/03 13:00:08;;;;;;;14.93;10.52;;;;;;;;;;5068921;28;20452;-70
2023/05/03 13:02:35;;;;;;;12.23;9.68;;;;;;;;;;5068924;28;20452;-69
2023/05/03 13:05:01;;;;;;;12.40;10.65;;;;;;;;;;5073312;28;20090;-69
2023/05/03 13:07:29;;;;;;;11.18;8.55;;;;;;;;;;5073303;28;20127;-69
2023/05/03 13:09:57;;;;;;;12.75;10.35;;;;;;;;;;5073093;28;20052;-69
2023/05/03 13:12:25;;;;;;;12.68;11.38;;;;;;;;;;5073060;28;20052;-69
2023/05/03 13:14:53;;;;;;;13.27;10.63;;;;;;;;;;5073104;28;20057;-68
2023/05/03 13:17:22;;;;;;;11.50;9.85;;;;;;;;;;5072660;28;20052;-69
2023/05/03 13:19:50;;;;;;;12.00;10.70;;;;;;;;;;5070058;28;20234;-69
2023/05/03 13:22:17;;;;;;;13.35;11.00;;;;;;;;;;5073301;28;20151;-68
2023/05/03 13:24:47;;;;;;;12.10;10.07;;;;;;;;;;5072575;28;20052;-68
2023/05/03 13:27:14;;;;;;;;;;;;;;;;;;5073352;28;20059;-69
2023/05/03 13:29:42;;;;;;;12.18;10.13;;;;;;;;;;5072340;28;19920;-69
2023/05/03 13:32:09;;;;;;;11.00;9.38;;;;;;;;;;5072497;28;20052;-69
2023/05/03 13:34:37;;;;;;;12.38;10.20;;;;;;;;;;5072170;28;20048;-69
2023/05/03 13:37:04;;;;;;;14.30;11.93;;;;;;;;;;5072125;28;20044;-69
2023/05/03 13:39:31;;;;;;;11.05;9.90;;;;;;;;;;5071819;28;20082;-70
2023/05/03 13:41:58;;;;;;;11.30;9.88;;;;;;;;;;5069582;28;20041;-69
2023/05/03 13:44:25;;;;;;;11.63;10.43;;;;;;;;;;5072519;28;20045;-69
2023/05/03 13:46:52;;;;;;;13.25;10.52;;;;;;;;;;5072399;28;20072;-69
2023/05/03 13:49:19;;;;;;;12.30;10.30;;;;;;;;;;5069167;28;20056;-69
2023/05/03 13:51:47;;;;;;;12.43;10.68;;;;;;;;;;5071754;28;20053;-69
2023/05/03 13:54:14;;;;;;;12.63;10.98;;;;;;;;;;5072272;28;20037;-69
2023/05/03 13:56:41;;;;;;;10.38;9.02;;;;;;;;;;5072211;28;20110;-69
2023/05/03 13:59:08;;;;;;;9.68;7.88;;;;;;;;;;5071704;28;20049;-69
2023/05/03 14:01:36;;;;;;;9.75;8.45;;;;;;;;;;5071952;28;20082;-69
2023/05/03 14:04:03;;;;;;;10.23;8.40;;;;;;;;;;5071900;28;20307;-69
2023/05/03 14:06:30;;;;;;;8.93;7.85;;;;;;;;;;5071669;28;20131;-69
2023/05/03 14:09:00;;;;;;;9.18;7.95;;;;;;;;;;5071790;28;20540;-69
2023/05/03 14:11:27;;;;;;;8.52;7.43;;;;;;;;;;5072307;28;20142;-69
2023/05/03 14:13:54;;;;;;;8.18;7.13;;;;;;;;;;5071287;28;20139;-69
2023/05/03 14:16:23;;;;;;;7.60;6.28;;;;;;;;;;5071369;28;20143;-68
2023/05/03 14:18:51;;;;;;;6.80;6.03;;;;;;;;;;5072108;28;20045;-67
2023/05/03 14:21:19;;;;;;;7.03;5.35;;;;;;;;;;5071934;28;20369;-67
2023/05/03 14:23:46;;;;;;;7.63;6.50;;;;;;;;;;5072334;28;20300;-68
2023/05/03 14:26:15;;;;;;;6.30;5.32;;;;;;;;;;5071584;28;20059;-69
2023/05/03 14:28:42;;;;;;;5.68;4.95;;;;;;;;;;5072530;28;20055;-69
2023/05/03 14:31:09;;;;;;;5.28;4.30;;;;;;;;;;5071072;28;20501;-69
2023/05/03 14:33:36;;;;;;;5.53;4.15;;;;;;;;;;5071751;28;20049;-69
2023/05/03 14:36:03;;;;;;;5.20;4.03;;;;;;;;;;5071591;28;20052;-69